createdAt,value
2022-07-29T00:00:26.064Z,60.28
2022-07-29T00:01:26.019Z,60.28
2022-07-29T00:02:26.096Z,60.48
2022-07-29T00:03:26.078Z,60.51
2022-07-29T00:04:26.109Z,60.71
2022-07-29T00:05:26.009Z,60.91
2022-07-29T00:06:25.994Z,61.01
2022-07-29T00:07:25.961Z,60.91
2022-07-29T00:08:25.954Z,60.91
2022-07-29T00:09:25.979Z,61.01
2022-07-29T00:10:25.954Z,60.91
2022-07-29T00:11:25.944Z,61.01
2022-07-29T00:12:26.786Z,61.21
2022-07-29T00:13:32.315Z,61.21
2022-07-29T00:14:25.921Z,61.21
2022-07-29T00:15:25.877Z,61.52
2022-07-29T00:16:25.921Z,61.52
2022-07-29T00:17:25.878Z,61.52
2022-07-29T00:18:25.845Z,61.72
2022-07-29T00:19:25.876Z,61.72
2022-07-29T00:20:25.828Z,61.92
2022-07-29T00:21:25.845Z,61.95
2022-07-29T00:22:25.802Z,61.92
2022-07-29T00:23:25.800Z,61.92
2022-07-29T00:24:25.813Z,61.82
2022-07-29T00:25:25.790Z,61.82
2022-07-29T00:26:25.796Z,61.82
2022-07-29T00:27:25.750Z,61.72
2022-07-29T00:28:25.750Z,61.92
2022-07-29T00:29:34.744Z,61.82
2022-07-29T00:30:25.737Z,61.82
2022-07-29T00:31:25.821Z,61.92
2022-07-29T00:32:25.715Z,61.92
2022-07-29T00:33:25.682Z,61.92
2022-07-29T00:34:25.689Z,61.92
2022-07-29T00:35:25.674Z,61.92
2022-07-29T00:36:25.806Z,62.02
2022-07-29T00:37:25.770Z,62.22
2022-07-29T00:38:25.746Z,62.45
2022-07-29T00:39:25.643Z,62.65
2022-07-29T00:40:25.620Z,62.85
2022-07-29T00:41:25.621Z,62.96
2022-07-29T00:42:25.623Z,63.06
2022-07-29T00:43:25.583Z,63.16
2022-07-29T00:44:25.588Z,63.16
2022-07-29T00:45:25.560Z,63.16
2022-07-29T00:46:25.631Z,63.26
2022-07-29T00:47:25.640Z,63.49
2022-07-29T00:48:25.538Z,63.59
2022-07-29T00:49:25.575Z,63.56
2022-07-29T00:50:25.554Z,63.59
2022-07-29T00:51:25.522Z,63.70
2022-07-29T00:52:25.492Z,63.67
2022-07-29T00:53:25.480Z,63.56
2022-07-29T00:54:25.474Z,63.56
2022-07-29T00:55:25.457Z,63.79
2022-07-29T00:56:25.437Z,64.00
2022-07-29T00:57:25.425Z,64.20
2022-07-29T00:58:25.420Z,64.53
2022-07-29T00:59:25.438Z,64.64
2022-07-29T01:00:25.507Z,64.73
2022-07-29T01:01:25.508Z,64.73
2022-07-29T01:02:25.467Z,64.53
2022-07-29T01:03:25.363Z,64.64
2022-07-29T01:04:25.373Z,64.84
2022-07-29T01:05:25.342Z,64.94
2022-07-29T01:06:25.347Z,64.94
2022-07-29T01:07:25.324Z,64.94
2022-07-29T01:08:25.337Z,65.04
2022-07-29T01:09:43.068Z,65.24
2022-07-29T01:10:25.315Z,65.24
2022-07-29T01:11:25.277Z,65.24
2022-07-29T01:12:25.331Z,65.34
2022-07-29T01:13:25.316Z,65.34
2022-07-29T01:14:25.418Z,65.34
2022-07-29T01:15:25.331Z,65.44
2022-07-29T01:16:25.358Z,65.54
2022-07-29T01:17:25.267Z,65.67
2022-07-29T01:18:25.254Z,65.78
2022-07-29T01:19:25.338Z,65.88
2022-07-29T01:20:25.552Z,65.88
2022-07-29T01:21:25.203Z,65.88
2022-07-29T01:22:25.179Z,65.88
2022-07-29T01:23:25.166Z,65.88
2022-07-29T01:24:25.169Z,65.98
2022-07-29T01:25:25.145Z,66.08
2022-07-29T01:26:25.130Z,66.18
2022-07-29T01:27:25.127Z,66.18
2022-07-29T01:28:25.149Z,66.28
2022-07-29T01:29:25.117Z,66.18
2022-07-29T01:30:25.086Z,66.18
2022-07-29T01:31:26.582Z,66.18
2022-07-29T01:32:28.282Z,66.08
2022-07-29T01:33:25.064Z,66.08
2022-07-29T01:34:25.073Z,65.98
2022-07-29T01:35:25.060Z,66.08
2022-07-29T01:36:25.029Z,66.08
2022-07-29T01:37:25.024Z,66.08
2022-07-29T01:38:25.039Z,66.08
2022-07-29T01:39:25.012Z,65.98
2022-07-29T01:40:24.983Z,65.98
2022-07-29T01:41:24.988Z,66.08
2022-07-29T01:42:24.958Z,65.98
2022-07-29T01:43:24.958Z,65.98
2022-07-29T01:44:24.962Z,65.75
2022-07-29T01:45:24.951Z,65.54
2022-07-29T01:46:24.951Z,65.54
2022-07-29T01:47:24.911Z,65.54
2022-07-29T01:48:24.899Z,65.54
2022-07-29T01:49:25.095Z,65.84
2022-07-29T01:50:24.887Z,65.88
2022-07-29T01:51:24.879Z,65.88
2022-07-29T01:52:24.892Z,65.84
2022-07-29T01:53:24.851Z,65.75
2022-07-29T01:54:24.855Z,65.64
2022-07-29T01:55:24.839Z,65.64
2022-07-29T01:56:24.809Z,65.84
2022-07-29T01:57:24.835Z,65.88
2022-07-29T01:58:24.808Z,65.98
2022-07-29T01:59:24.807Z,65.98
2022-07-29T02:00:24.772Z,65.98
2022-07-29T02:01:24.809Z,65.98
2022-07-29T02:02:24.753Z,66.08
2022-07-29T02:03:24.745Z,66.28
2022-07-29T02:04:29.192Z,66.48
2022-07-29T02:05:24.812Z,66.48
2022-07-29T02:06:24.703Z,66.48
2022-07-29T02:07:24.695Z,66.48
2022-07-29T02:08:24.691Z,66.48
2022-07-29T02:09:24.703Z,66.69
2022-07-29T02:10:25.900Z,66.69
2022-07-29T02:11:24.663Z,66.72
2022-07-29T02:12:24.638Z,66.82
2022-07-29T02:13:24.633Z,66.82
2022-07-29T02:14:24.654Z,66.82
2022-07-29T02:15:24.611Z,66.82
2022-07-29T02:16:24.663Z,66.82
2022-07-29T02:17:24.599Z,66.72
2022-07-29T02:18:24.586Z,66.82
2022-07-29T02:19:24.615Z,66.92
2022-07-29T02:20:24.562Z,67.02
2022-07-29T02:21:24.553Z,67.12
2022-07-29T02:22:24.531Z,67.12
2022-07-29T02:23:24.528Z,67.43
2022-07-29T02:24:24.575Z,67.52
2022-07-29T02:25:24.506Z,67.55
2022-07-29T02:26:24.497Z,67.76
2022-07-29T02:27:24.483Z,67.86
2022-07-29T02:28:24.472Z,67.86
2022-07-29T02:29:24.495Z,67.66
2022-07-29T02:30:24.451Z,67.72
2022-07-29T02:31:24.514Z,67.63
2022-07-29T02:32:24.428Z,67.52
2022-07-29T02:33:24.427Z,67.52
2022-07-29T02:34:24.417Z,67.32
2022-07-29T02:35:24.422Z,67.12
2022-07-29T02:36:24.427Z,67.12
2022-07-29T02:37:24.376Z,67.02
2022-07-29T02:38:24.364Z,66.89
2022-07-29T02:39:24.380Z,66.78
2022-07-29T02:40:24.345Z,66.69
2022-07-29T02:41:24.335Z,66.69
2022-07-29T02:42:24.330Z,66.58
2022-07-29T02:43:24.312Z,66.69
2022-07-29T02:44:24.315Z,66.78
2022-07-29T02:45:24.303Z,66.92
2022-07-29T02:46:28.187Z,67.02
2022-07-29T02:47:24.299Z,67.22
2022-07-29T02:48:24.263Z,67.52
2022-07-29T02:49:24.361Z,67.52
2022-07-29T02:50:24.309Z,67.72
2022-07-29T02:51:44.102Z,67.96
2022-07-29T02:52:24.208Z,67.96
2022-07-29T02:53:24.169Z,67.96
2022-07-29T02:54:24.186Z,67.96
2022-07-29T02:55:24.141Z,68.16
2022-07-29T02:56:24.114Z,68.26
2022-07-29T02:57:24.124Z,68.37
2022-07-29T02:58:24.102Z,68.47
2022-07-29T02:59:24.104Z,68.47
2022-07-29T03:00:24.109Z,68.47
2022-07-29T03:01:24.119Z,68.47
2022-07-29T03:02:24.055Z,68.47
2022-07-29T03:03:24.061Z,68.26
2022-07-29T03:04:24.084Z,68.16
2022-07-29T03:05:24.025Z,68.26
2022-07-29T03:06:37.466Z,68.26
2022-07-29T03:07:24.020Z,68.16
2022-07-29T03:08:23.992Z,68.06
2022-07-29T03:09:23.998Z,67.96
2022-07-29T03:10:23.975Z,67.93
2022-07-29T03:11:41.527Z,67.93
2022-07-29T03:12:23.960Z,67.83
2022-07-29T03:13:23.949Z,67.63
2022-07-29T03:14:23.976Z,67.63
2022-07-29T03:15:24.876Z,67.52
2022-07-29T03:16:23.970Z,67.63
2022-07-29T03:17:23.905Z,67.86
2022-07-29T03:18:23.886Z,68.06
2022-07-29T03:19:23.905Z,68.16
2022-07-29T03:20:23.865Z,68.16
2022-07-29T03:21:23.860Z,68.16
2022-07-29T03:22:23.838Z,68.16
2022-07-29T03:23:23.851Z,68.26
2022-07-29T03:24:23.834Z,68.37
2022-07-29T03:25:23.811Z,68.47
2022-07-29T03:26:23.804Z,68.47
2022-07-29T03:27:23.793Z,68.37
2022-07-29T03:28:23.776Z,68.16
2022-07-29T03:29:23.794Z,67.96
2022-07-29T03:30:23.777Z,68.06
2022-07-29T03:31:23.787Z,68.16
2022-07-29T03:32:25.343Z,68.37
2022-07-29T03:33:23.726Z,68.47
2022-07-29T03:34:23.731Z,68.47
2022-07-29T03:35:23.730Z,68.47
2022-07-29T03:36:23.700Z,68.26
2022-07-29T03:37:23.683Z,68.26
2022-07-29T03:38:23.672Z,68.26
2022-07-29T03:39:23.726Z,68.37
2022-07-29T03:40:23.647Z,68.37
2022-07-29T03:41:23.692Z,68.37
2022-07-29T03:42:23.633Z,68.37
2022-07-29T03:43:23.678Z,68.26
2022-07-29T03:44:23.608Z,68.16
2022-07-29T03:45:23.611Z,68.16
2022-07-29T03:46:23.740Z,67.93
2022-07-29T03:47:23.588Z,67.72
2022-07-29T03:48:23.570Z,67.63
2022-07-29T03:49:23.670Z,67.43
2022-07-29T03:50:23.570Z,67.52
2022-07-29T03:51:34.001Z,67.72
2022-07-29T03:52:23.529Z,67.72
2022-07-29T03:53:23.554Z,67.83
2022-07-29T03:54:23.507Z,67.86
2022-07-29T03:55:23.515Z,68.06
2022-07-29T03:56:23.527Z,67.76
2022-07-29T03:57:23.472Z,68.06
2022-07-29T03:58:23.461Z,68.06
2022-07-29T03:59:23.473Z,68.06
2022-07-29T04:00:23.447Z,67.93
2022-07-29T04:01:23.475Z,67.83
2022-07-29T04:02:27.353Z,67.86
2022-07-29T04:03:23.463Z,68.06
2022-07-29T04:04:23.399Z,68.26
2022-07-29T04:06:33.737Z,68.47
2022-07-29T04:07:34.715Z,68.57
2022-07-29T04:08:34.698Z,68.57
2022-07-29T04:09:34.781Z,68.47
2022-07-29T04:10:35.859Z,68.47
2022-07-29T04:11:34.685Z,68.57
2022-07-29T04:12:34.660Z,68.47
2022-07-29T04:13:34.650Z,68.47
2022-07-29T04:14:34.649Z,68.57
2022-07-29T04:15:34.706Z,68.47
2022-07-29T04:16:34.733Z,68.47
2022-07-29T04:17:34.623Z,68.47
2022-07-29T04:18:34.606Z,68.47
2022-07-29T04:19:34.615Z,68.47
2022-07-29T04:20:34.574Z,68.37
2022-07-29T04:21:34.563Z,68.37
2022-07-29T04:22:34.552Z,68.47
2022-07-29T04:23:34.549Z,68.47
2022-07-29T04:24:34.541Z,68.33
2022-07-29T04:25:34.544Z,68.13
2022-07-29T04:26:34.506Z,68.13
2022-07-29T04:27:34.499Z,67.93
2022-07-29T04:28:34.495Z,67.93
2022-07-29T04:29:34.482Z,68.03
2022-07-29T04:30:34.499Z,68.13
2022-07-29T04:31:34.491Z,68.03
2022-07-29T04:32:34.451Z,68.03
2022-07-29T04:33:34.445Z,68.03
2022-07-29T04:34:34.463Z,68.13
2022-07-29T04:35:37.951Z,67.83
2022-07-29T04:36:35.476Z,68.23
2022-07-29T04:37:34.413Z,68.23
2022-07-29T04:38:34.398Z,68.33
2022-07-29T04:39:34.376Z,68.23
2022-07-29T04:40:34.383Z,68.03
2022-07-29T04:41:34.486Z,67.72
2022-07-29T04:42:34.366Z,67.83
2022-07-29T04:43:36.793Z,68.03
2022-07-29T04:44:39.510Z,68.23
2022-07-29T04:45:34.333Z,68.33
2022-07-29T04:46:34.357Z,68.23
2022-07-29T04:47:34.293Z,68.03
2022-07-29T04:48:34.302Z,68.03
2022-07-29T04:49:34.296Z,68.33
2022-07-29T04:50:34.280Z,68.33
2022-07-29T04:51:34.275Z,68.33
2022-07-29T04:52:34.240Z,68.13
2022-07-29T04:53:34.233Z,68.33
2022-07-29T04:54:34.222Z,68.23
2022-07-29T04:55:34.225Z,67.93
2022-07-29T04:56:34.195Z,67.72
2022-07-29T04:57:34.185Z,67.80
2022-07-29T04:58:34.215Z,67.69
2022-07-29T04:59:34.172Z,67.29
2022-07-29T05:00:34.164Z,67.49
2022-07-29T05:01:34.238Z,67.60
2022-07-29T05:02:34.218Z,67.49
2022-07-29T05:03:34.130Z,67.49
2022-07-29T05:04:34.119Z,67.19
2022-07-29T05:05:34.119Z,67.29
2022-07-29T05:06:34.150Z,67.29
2022-07-29T05:07:34.092Z,67.19
2022-07-29T05:08:34.078Z,67.09
2022-07-29T05:09:34.061Z,67.09
2022-07-29T05:10:34.061Z,66.78
2022-07-29T05:11:34.053Z,66.89
2022-07-29T05:12:34.030Z,67.06
2022-07-29T05:13:46.033Z,66.96
2022-07-29T05:14:34.021Z,66.96
2022-07-29T05:15:34.069Z,66.96
2022-07-29T05:16:33.987Z,66.65
2022-07-29T05:17:33.981Z,66.75
2022-07-29T05:18:33.976Z,66.86
2022-07-29T05:19:33.963Z,66.86
2022-07-29T05:20:33.975Z,66.75
2022-07-29T05:21:33.942Z,66.32
2022-07-29T05:22:33.923Z,65.81
2022-07-29T05:23:33.915Z,65.92
2022-07-29T05:24:33.953Z,65.81
2022-07-29T05:25:43.380Z,65.81
2022-07-29T05:26:33.893Z,66.02
2022-07-29T05:27:33.905Z,65.51
2022-07-29T05:28:33.878Z,65.51
2022-07-29T05:29:44.614Z,65.81
2022-07-29T05:30:33.899Z,65.81
2022-07-29T05:31:33.838Z,65.92
2022-07-29T05:32:33.824Z,65.48
2022-07-29T05:33:35.346Z,65.38
2022-07-29T05:34:33.831Z,64.87
2022-07-29T05:35:33.827Z,65.08
2022-07-29T05:36:33.780Z,64.78
2022-07-29T05:37:33.787Z,64.78
2022-07-29T05:38:33.757Z,64.87
2022-07-29T05:39:49.089Z,64.58
2022-07-29T05:40:33.764Z,64.78
2022-07-29T05:41:33.731Z,64.78
2022-07-29T05:42:33.722Z,65.08
2022-07-29T05:43:33.709Z,65.18
2022-07-29T05:44:33.704Z,64.87
2022-07-29T05:45:33.703Z,64.67
2022-07-29T05:46:33.753Z,64.78
2022-07-29T05:47:33.694Z,64.87
2022-07-29T05:48:33.654Z,65.08
2022-07-29T05:49:33.686Z,65.38
2022-07-29T05:50:33.669Z,65.58
2022-07-29T05:51:33.625Z,65.48
2022-07-29T05:52:33.615Z,64.87
2022-07-29T05:53:33.610Z,64.78
2022-07-29T05:54:33.593Z,64.98
2022-07-29T05:55:33.601Z,64.98
2022-07-29T05:56:33.576Z,64.95
2022-07-29T05:57:33.618Z,64.84
2022-07-29T05:58:33.545Z,64.34
2022-07-29T05:59:33.545Z,64.44
2022-07-29T06:00:33.566Z,64.75
2022-07-29T06:01:33.632Z,64.95
2022-07-29T06:02:33.505Z,64.64
2022-07-29T06:03:33.503Z,64.34
2022-07-29T06:04:33.561Z,63.50
2022-07-29T06:05:33.504Z,63.50
2022-07-29T06:06:33.489Z,63.50
2022-07-29T06:07:33.908Z,63.70
2022-07-29T06:08:33.486Z,63.40
2022-07-29T06:09:36.234Z,63.50
2022-07-29T06:10:33.510Z,63.30
2022-07-29T06:11:33.421Z,63.17
2022-07-29T06:12:33.402Z,63.17
2022-07-29T06:13:33.402Z,63.07
2022-07-29T06:14:33.439Z,62.74
2022-07-29T06:15:33.474Z,62.54
2022-07-29T06:16:33.450Z,62.04
2022-07-29T06:17:33.383Z,61.93
2022-07-29T06:18:33.343Z,62.04
2022-07-29T06:19:33.346Z,61.90
2022-07-29T06:20:33.397Z,61.80
2022-07-29T06:21:33.319Z,61.80
2022-07-29T06:22:33.404Z,61.30
2022-07-29T06:23:33.325Z,61.20
2022-07-29T06:24:33.387Z,61.17
2022-07-29T06:25:33.335Z,60.36
2022-07-29T06:26:37.755Z,60.36
2022-07-29T06:27:33.312Z,60.36
2022-07-29T06:28:34.284Z,60.13
2022-07-29T06:29:33.237Z,60.24
2022-07-29T06:30:33.504Z,59.94
2022-07-29T06:31:33.605Z,60.13
2022-07-29T06:32:33.243Z,59.63
2022-07-29T06:33:33.222Z,59.74
2022-07-29T06:34:33.225Z,60.00
2022-07-29T06:35:38.330Z,59.74
2022-07-29T06:36:33.230Z,59.83
2022-07-29T06:37:33.171Z,59.74
2022-07-29T06:38:34.259Z,59.83
2022-07-29T06:39:33.194Z,60.44
2022-07-29T06:40:33.220Z,60.24
2022-07-29T06:41:33.116Z,60.13
2022-07-29T06:42:33.196Z,60.13
2022-07-29T06:43:33.129Z,59.94
2022-07-29T06:44:33.098Z,59.43
2022-07-29T06:45:33.129Z,59.74
2022-07-29T06:46:33.367Z,59.13
2022-07-29T06:47:33.087Z,59.41
2022-07-29T06:48:33.066Z,59.33
2022-07-29T06:49:33.129Z,59.63
2022-07-29T06:50:33.068Z,59.74
2022-07-29T06:51:33.044Z,60.13
2022-07-29T06:52:33.027Z,60.24
2022-07-29T06:53:33.002Z,60.24
2022-07-29T06:54:32.976Z,60.64
2022-07-29T06:55:33.047Z,60.44
2022-07-29T06:56:39.239Z,59.91
2022-07-29T06:57:32.964Z,59.91
2022-07-29T06:58:32.943Z,59.60
2022-07-29T06:59:35.891Z,59.70
2022-07-29T07:00:32.995Z,60.03
2022-07-29T07:01:33.103Z,59.53
2022-07-29T07:02:32.958Z,59.74
2022-07-29T07:03:32.892Z,60.03
2022-07-29T07:04:32.921Z,59.91
2022-07-29T07:05:32.873Z,59.60
2022-07-29T07:06:32.932Z,59.74
2022-07-29T07:07:32.864Z,59.83
2022-07-29T07:08:32.866Z,60.00
2022-07-29T07:09:40.353Z,59.80
2022-07-29T07:10:32.869Z,59.91
2022-07-29T07:11:32.849Z,59.80
2022-07-29T07:12:32.801Z,59.80
2022-07-29T07:13:32.825Z,59.20
2022-07-29T07:14:32.823Z,59.30
2022-07-29T07:15:38.958Z,59.30
2022-07-29T07:16:33.155Z,59.88
2022-07-29T07:17:32.766Z,59.38
2022-07-29T07:18:32.785Z,58.44
2022-07-29T07:19:32.749Z,58.34
2022-07-29T07:20:32.805Z,58.01
2022-07-29T07:21:32.747Z,57.91
2022-07-29T07:22:38.371Z,58.01
2022-07-29T07:23:32.752Z,57.61
2022-07-29T07:24:32.658Z,57.59
2022-07-29T07:25:32.659Z,57.39
2022-07-29T07:26:32.645Z,57.18
2022-07-29T07:27:32.637Z,56.56
2022-07-29T07:28:32.627Z,56.76
2022-07-29T07:29:32.604Z,56.65
2022-07-29T07:30:32.637Z,56.15
2022-07-29T07:31:32.677Z,56.15
2022-07-29T07:32:32.619Z,56.13
2022-07-29T07:33:32.589Z,56.33
2022-07-29T07:34:32.560Z,55.93
2022-07-29T07:35:32.888Z,56.02
2022-07-29T07:36:32.562Z,55.70
2022-07-29T07:37:32.566Z,55.20
2022-07-29T07:38:32.684Z,55.50
2022-07-29T07:39:32.551Z,55.60
2022-07-29T07:40:32.569Z,55.60
2022-07-29T07:41:32.744Z,55.90
2022-07-29T07:42:32.587Z,55.60
2022-07-29T07:43:32.532Z,55.80
2022-07-29T07:44:32.479Z,55.70
2022-07-29T07:45:32.558Z,55.37
2022-07-29T07:46:32.481Z,55.17
2022-07-29T07:47:32.627Z,55.05
2022-07-29T07:48:33.059Z,54.55
2022-07-29T07:49:34.376Z,54.35
2022-07-29T07:50:32.443Z,54.12
2022-07-29T07:51:32.410Z,53.92
2022-07-29T07:52:32.430Z,53.89
2022-07-29T07:53:32.705Z,53.79
2022-07-29T07:54:32.496Z,52.97
2022-07-29T07:55:47.513Z,52.69
2022-07-29T07:56:35.251Z,53.07
2022-07-29T07:57:32.416Z,52.77
2022-07-29T07:58:32.346Z,52.74
2022-07-29T07:59:32.307Z,52.42
2022-07-29T08:00:32.370Z,52.19
2022-07-29T08:01:54.963Z,51.57
2022-07-29T08:02:32.354Z,50.35
2022-07-29T08:03:32.285Z,49.80
2022-07-29T08:04:32.308Z,48.66
2022-07-29T08:05:32.650Z,47.42
2022-07-29T08:06:32.246Z,45.98
2022-07-29T08:07:32.245Z,45.25
2022-07-29T08:08:32.265Z,44.01
2022-07-29T08:09:32.242Z,42.78
2022-07-29T08:10:32.261Z,41.85
2022-07-29T08:11:34.080Z,40.72
2022-07-29T08:12:32.180Z,40.09
2022-07-29T08:13:32.415Z,39.36
2022-07-29T08:14:32.269Z,38.26
2022-07-29T08:15:32.214Z,38.42
2022-07-29T08:16:32.259Z,37.91
2022-07-29T08:17:32.158Z,37.71
2022-07-29T08:18:32.245Z,37.59
2022-07-29T08:19:32.172Z,37.38
2022-07-29T08:20:32.153Z,36.18
2022-07-29T08:21:32.113Z,35.90
2022-07-29T08:22:32.123Z,35.41
2022-07-29T08:23:46.238Z,35.69
2022-07-29T08:24:32.073Z,35.46
2022-07-29T08:25:32.088Z,35.05
2022-07-29T08:26:32.114Z,35.13
2022-07-29T08:27:47.550Z,34.95
2022-07-29T08:28:32.062Z,34.34
2022-07-29T08:29:32.005Z,34.66
2022-07-29T08:30:32.088Z,34.74
2022-07-29T08:31:32.156Z,34.74
2022-07-29T08:32:52.759Z,34.85
2022-07-29T08:33:32.298Z,35.26
2022-07-29T08:34:32.052Z,35.80
2022-07-29T08:35:35.186Z,37.24
2022-07-29T08:36:31.931Z,38.67
2022-07-29T08:37:32.079Z,39.11
2022-07-29T08:38:32.022Z,40.33
2022-07-29T08:39:32.245Z,40.98
2022-07-29T08:40:32.783Z,41.12
2022-07-29T08:41:31.881Z,42.25
2022-07-29T08:42:31.887Z,43.36
2022-07-29T08:43:31.976Z,43.98
2022-07-29T08:44:31.925Z,43.98
2022-07-29T08:45:31.949Z,44.40
2022-07-29T08:46:31.912Z,44.62
2022-07-29T08:47:31.885Z,44.02
2022-07-29T08:48:31.915Z,45.14
2022-07-29T08:49:31.927Z,45.75
2022-07-29T08:50:31.849Z,45.75
2022-07-29T08:51:31.850Z,45.75
2022-07-29T08:52:31.803Z,45.55
2022-07-29T08:53:31.835Z,45.65
2022-07-29T08:54:31.792Z,45.95
2022-07-29T08:55:31.904Z,45.55
2022-07-29T08:56:31.780Z,46.15
2022-07-29T08:57:32.081Z,46.15
2022-07-29T08:58:31.804Z,46.25
2022-07-29T08:59:32.602Z,45.97
2022-07-29T09:00:31.841Z,46.47
2022-07-29T09:01:36.137Z,45.97
2022-07-29T09:02:31.710Z,44.88
2022-07-29T09:03:31.765Z,45.70
2022-07-29T09:04:31.716Z,46.00
2022-07-29T09:05:31.719Z,45.60
2022-07-29T09:06:31.729Z,45.72
2022-07-29T09:07:34.834Z,45.72
2022-07-29T09:08:31.660Z,46.12
2022-07-29T09:09:31.646Z,46.01
2022-07-29T09:10:31.745Z,46.44
2022-07-29T09:11:31.766Z,46.72
2022-07-29T09:12:36.080Z,46.81
2022-07-29T09:13:31.617Z,47.02
2022-07-29T09:14:31.603Z,46.91
2022-07-29T09:15:31.659Z,46.72
2022-07-29T09:16:51.932Z,45.82
2022-07-29T09:17:31.642Z,46.01
2022-07-29T09:18:31.749Z,45.72
2022-07-29T09:19:31.544Z,45.60
2022-07-29T09:20:31.650Z,46.09
2022-07-29T09:21:31.540Z,45.90
2022-07-29T09:22:31.519Z,45.50
2022-07-29T09:23:31.532Z,45.57
2022-07-29T09:24:31.478Z,44.78
2022-07-29T09:25:31.529Z,45.60
2022-07-29T09:26:31.555Z,45.30
2022-07-29T09:27:31.443Z,44.98
2022-07-29T09:28:31.477Z,45.37
2022-07-29T09:29:35.836Z,45.18
2022-07-29T09:30:31.809Z,45.28
2022-07-29T09:31:31.486Z,45.28
2022-07-29T09:32:31.432Z,45.37
2022-07-29T09:33:31.423Z,45.37
2022-07-29T09:34:31.497Z,45.48
2022-07-29T09:35:31.364Z,44.68
2022-07-29T09:36:31.406Z,45.28
2022-07-29T09:37:31.349Z,44.88
2022-07-29T09:38:31.431Z,44.28
2022-07-29T09:39:31.336Z,43.79
2022-07-29T09:40:31.363Z,43.79
2022-07-29T09:41:31.307Z,44.58
2022-07-29T09:42:31.392Z,44.78
2022-07-29T09:43:31.285Z,44.38
2022-07-29T09:44:31.280Z,44.31
2022-07-29T09:45:31.333Z,44.50
2022-07-29T09:46:31.405Z,44.01
2022-07-29T09:47:32.180Z,44.60
2022-07-29T09:48:31.222Z,44.60
2022-07-29T09:49:31.221Z,44.20
2022-07-29T09:50:31.227Z,43.88
2022-07-29T09:51:38.344Z,44.08
2022-07-29T09:52:31.245Z,43.08
2022-07-29T09:53:31.183Z,43.68
2022-07-29T09:54:31.254Z,43.29
2022-07-29T09:55:31.263Z,43.29
2022-07-29T09:56:31.145Z,43.68
2022-07-29T09:57:31.517Z,43.49
2022-07-29T09:58:31.144Z,43.29
2022-07-29T09:59:31.094Z,43.38
2022-07-29T10:00:31.195Z,42.59
2022-07-29T10:01:31.088Z,43.08
2022-07-29T10:02:31.099Z,43.19
2022-07-29T10:03:31.159Z,43.29
2022-07-29T10:04:31.093Z,43.49
2022-07-29T10:05:36.355Z,43.19
2022-07-29T10:07:41.356Z,42.57
2022-07-29T10:08:42.310Z,42.67
2022-07-29T10:09:42.303Z,41.75
2022-07-29T10:10:42.319Z,41.95
2022-07-29T10:11:49.273Z,41.53
2022-07-29T10:12:42.276Z,41.04
2022-07-29T10:13:42.264Z,41.63
2022-07-29T10:14:42.268Z,41.34
2022-07-29T10:15:42.265Z,41.91
2022-07-29T10:16:42.337Z,41.31
2022-07-29T10:17:42.224Z,41.31
2022-07-29T10:18:42.215Z,41.52
2022-07-29T10:19:42.206Z,41.61
2022-07-29T10:20:42.202Z,40.33
2022-07-29T10:21:42.179Z,40.72
2022-07-29T10:22:53.012Z,41.12
2022-07-29T10:23:46.254Z,40.82
2022-07-29T10:24:42.180Z,40.62
2022-07-29T10:25:46.334Z,39.92
2022-07-29T10:26:42.131Z,40.33
2022-07-29T10:27:42.125Z,40.42
2022-07-29T10:28:42.149Z,40.50
2022-07-29T10:29:42.100Z,40.20
2022-07-29T10:30:42.117Z,40.01
2022-07-29T10:31:42.302Z,39.81
2022-07-29T10:32:42.071Z,40.01
2022-07-29T10:33:42.088Z,39.41
2022-07-29T10:34:42.069Z,39.71
2022-07-29T10:35:42.074Z,39.41
2022-07-29T10:36:43.330Z,39.43
2022-07-29T10:37:46.043Z,39.43
2022-07-29T10:38:46.094Z,39.23
2022-07-29T10:39:45.195Z,40.01
2022-07-29T10:40:42.003Z,39.43
2022-07-29T10:41:44.105Z,39.43
2022-07-29T10:42:41.960Z,39.71
2022-07-29T10:43:42.341Z,40.62
2022-07-29T10:44:41.963Z,41.22
2022-07-29T10:45:41.954Z,39.83
2022-07-29T10:46:41.950Z,39.03
2022-07-29T10:47:41.968Z,39.63
2022-07-29T10:48:41.942Z,40.03
2022-07-29T10:49:41.917Z,40.12
2022-07-29T10:50:41.890Z,41.02
2022-07-29T10:51:41.876Z,40.80
2022-07-29T10:52:41.940Z,39.81
2022-07-29T10:53:41.864Z,41.30
2022-07-29T10:54:42.348Z,40.70
2022-07-29T10:55:43.223Z,40.60
2022-07-29T10:56:41.809Z,40.80
2022-07-29T10:57:53.751Z,41.00
2022-07-29T10:58:41.801Z,39.98
2022-07-29T10:59:41.801Z,39.79
2022-07-29T11:00:41.809Z,39.59
2022-07-29T11:02:02.452Z,39.69
2022-07-29T12:07:11.071Z,40.26
2022-07-29T12:07:20.391Z,42.63
2022-07-29T12:08:19.819Z,42.92
2022-07-29T12:09:19.777Z,43.62
2022-07-29T12:10:30.400Z,43.82
2022-07-29T12:11:20.914Z,44.21
2022-07-29T12:12:19.761Z,43.82
2022-07-29T12:13:19.737Z,43.62
2022-07-29T12:14:19.721Z,43.30
2022-07-29T12:15:20.375Z,43.40
2022-07-29T12:16:26.494Z,43.70
2022-07-29T12:17:19.735Z,43.30
2022-07-29T12:18:19.707Z,43.49
2022-07-29T12:19:19.672Z,43.60
2022-07-29T12:20:20.467Z,43.70
2022-07-29T12:21:19.650Z,43.99
2022-07-29T12:22:19.652Z,44.07
2022-07-29T12:23:19.631Z,43.79
2022-07-29T12:24:19.633Z,43.99
2022-07-29T12:25:35.023Z,43.60
2022-07-29T12:26:21.841Z,43.40
2022-07-29T12:27:19.599Z,43.77
2022-07-29T12:28:26.842Z,43.67
2022-07-29T12:29:20.351Z,43.77
2022-07-29T12:30:19.590Z,43.48
2022-07-29T12:31:43.324Z,43.16
2022-07-29T12:32:20.083Z,43.48
2022-07-29T12:33:19.524Z,43.77
2022-07-29T12:34:19.522Z,43.57
2022-07-29T12:35:19.529Z,43.48
2022-07-29T12:36:19.497Z,43.18
2022-07-29T12:37:19.482Z,42.98
2022-07-29T12:38:19.488Z,42.19
2022-07-29T12:39:19.460Z,42.88
2022-07-29T12:40:19.475Z,42.76
2022-07-29T12:41:19.456Z,42.27
2022-07-29T12:42:19.445Z,42.35
2022-07-29T12:43:19.422Z,42.35
2022-07-29T12:44:19.411Z,42.35
2022-07-29T12:45:19.430Z,42.35
2022-07-29T12:46:19.517Z,42.52
2022-07-29T12:47:19.424Z,41.93
2022-07-29T12:48:19.395Z,41.10
2022-07-29T12:49:19.416Z,41.10
2022-07-29T12:50:23.273Z,40.98
2022-07-29T12:51:19.408Z,38.92
2022-07-29T12:52:19.335Z,39.70
2022-07-29T12:53:19.316Z,39.68
2022-07-29T12:54:19.337Z,39.48
2022-07-29T12:55:19.344Z,39.99
2022-07-29T12:57:19.997Z,40.70
2022-07-29T12:58:19.317Z,40.90
2022-07-29T12:59:19.254Z,41.22
2022-07-29T13:00:19.283Z,41.12
2022-07-29T13:01:19.302Z,40.64
2022-07-29T13:02:19.276Z,40.82
2022-07-29T13:03:19.625Z,40.39
2022-07-29T13:04:19.230Z,38.20
2022-07-29T13:05:19.216Z,38.90
2022-07-29T13:06:19.203Z,39.20
2022-07-29T13:07:19.304Z,38.89
2022-07-29T13:08:22.081Z,38.59
2022-07-29T13:09:19.160Z,38.87
2022-07-29T13:10:19.171Z,38.96
2022-07-29T13:11:19.161Z,39.36
2022-07-29T13:12:19.130Z,39.17
2022-07-29T13:13:19.146Z,39.06
2022-07-29T13:14:19.116Z,38.79
2022-07-29T13:15:19.091Z,39.06
2022-07-29T13:16:19.150Z,39.28
2022-07-29T13:17:19.075Z,39.68
2022-07-29T13:18:19.568Z,39.60
2022-07-29T13:19:19.064Z,39.99
2022-07-29T13:20:19.084Z,40.41
2022-07-29T13:21:19.118Z,40.42
2022-07-29T13:22:19.025Z,40.62
2022-07-29T13:23:19.008Z,41.14
2022-07-29T13:24:19.961Z,40.74
2022-07-29T13:25:19.006Z,41.46
2022-07-29T13:26:19.030Z,41.65
2022-07-29T13:27:19.011Z,42.14
2022-07-29T13:28:18.975Z,42.05
2022-07-29T13:29:18.973Z,42.14
2022-07-29T13:30:18.964Z,42.05
2022-07-29T13:31:18.980Z,42.03
2022-07-29T13:32:18.954Z,41.83
2022-07-29T13:33:18.933Z,41.71
2022-07-29T13:34:18.905Z,42.01
2022-07-29T13:35:18.883Z,41.83
2022-07-29T13:36:18.919Z,41.61
2022-07-29T13:37:18.918Z,41.63
2022-07-29T13:38:18.890Z,41.83
2022-07-29T13:39:18.856Z,41.83
2022-07-29T13:40:18.850Z,41.93
2022-07-29T13:41:18.840Z,41.73
2022-07-29T13:42:18.813Z,41.83
2022-07-29T13:43:18.798Z,41.61
2022-07-29T13:44:18.796Z,41.41
2022-07-29T13:45:18.794Z,41.00
2022-07-29T13:46:18.946Z,40.98
2022-07-29T13:47:18.796Z,40.66
2022-07-29T13:48:18.763Z,39.44
2022-07-29T13:49:18.831Z,38.91
2022-07-29T13:50:18.746Z,38.30
2022-07-29T13:51:18.763Z,37.99
2022-07-29T13:52:18.718Z,36.88
2022-07-29T13:53:18.702Z,36.59
2022-07-29T13:54:18.713Z,36.65
2022-07-29T13:55:18.694Z,36.85
2022-07-29T13:56:18.704Z,37.15
2022-07-29T13:57:18.693Z,37.16
2022-07-29T13:58:18.658Z,37.59
2022-07-29T13:59:18.662Z,38.28